sensor_id;sensor_type;location;lat;lon;timestamp;temperature;humidity
5617;DHT22;2830;50.656;7.568;2022-07-10T00:00:10;14.90;1.00
5617;DHT22;2830;50.656;7.568;2022-07-10T00:02:38;15.00;99.90
5617;DHT22;2830;50.656;7.568;2022-07-10T00:05:06;15.00;1.00
5617;DHT22;2830;50.656;7.568;2022-07-10T00:07:33;15.00;99.90
5617;DHT22;2830;50.656;7.568;2022-07-10T00:10:00;14.90;45.50
5617;DHT22;2830;50.656;7.568;2022-07-10T00:12:27;14.90;99.90
5617;DHT22;2830;50.656;7.568;2022-07-10T00:14:54;14.80;99.90
5617;DHT22;2830;50.656;7.568;2022-07-10T00:17:20;14.80;55.60
5617;DHT22;2830;50.656;7.568;2022-07-10T00:19:47;14.90;99.90
5617;DHT22;2830;50.656;7.568;2022-07-10T00:22:14;14.80;83.70
5617;DHT22;2830;50.656;7.568;2022-07-10T00:24:40;14.80;99.90
5617;DHT22;2830;50.656;7.568;2022-07-10T00:27:07;14.70;99.90
5617;DHT22;2830;50.656;7.568;2022-07-10T00:29:34;14.60;75.20
5617;DHT22;2830;50.656;7.568;2022-07-10T00:32:00;14.70;99.90
5617;DHT22;2830;50.656;7.568;2022-07-10T00:34:27;14.70;99.90
5617;DHT22;2830;50.656;7.568;2022-07-10T00:36:53;14.80;99.90
5617;DHT22;2830;50.656;7.568;2022-07-10T00:39:20;14.80;1.00
5617;DHT22;2830;50.656;7.568;2022-07-10T00:41:47;14.80;1.00
5617;DHT22;2830;50.656;7.568;2022-07-10T00:44:14;14.70;99.90
5617;DHT22;2830;50.656;7.568;2022-07-10T00:46:40;14.60;1.00
5617;DHT22;2830;50.656;7.568;2022-07-10T00:49:07;14.50;1.00
5617;DHT22;2830;50.656;7.568;2022-07-10T00:51:34;14.50;99.90
5617;DHT22;2830;50.656;7.568;2022-07-10T00:54:01;14.30;1.00
5617;DHT22;2830;50.656;7.568;2022-07-10T00:56:28;14.10;1.00
5617;DHT22;2830;50.656;7.568;2022-07-10T00:58:55;14.00;1.00
5617;DHT22;2830;50.656;7.568;2022-07-10T01:01:22;13.90;99.90
5617;DHT22;2830;50.656;7.568;2022-07-10T01:03:49;13.80;1.00
5617;DHT22;2830;50.656;7.568;2022-07-10T01:06:16;13.70;92.00
5617;DHT22;2830;50.656;7.568;2022-07-10T01:08:45;13.70;1.00
5617;DHT22;2830;50.656;7.568;2022-07-10T01:11:13;13.50;99.90
5617;DHT22;2830;50.656;7.568;2022-07-10T01:13:42;13.50;1.00
5617;DHT22;2830;50.656;7.568;2022-07-10T01:16:13;13.50;99.90
5617;DHT22;2830;50.656;7.568;2022-07-10T01:18:40;13.30;1.00
5617;DHT22;2830;50.656;7.568;2022-07-10T01:21:27;13.20;1.00
5617;DHT22;2830;50.656;7.568;2022-07-10T01:23:55;13.20;99.90
5617;DHT22;2830;50.656;7.568;2022-07-10T01:26:23;13.00;1.00
5617;DHT22;2830;50.656;7.568;2022-07-10T01:28:53;12.90;99.90
5617;DHT22;2830;50.656;7.568;2022-07-10T01:31:25;12.80;1.00
5617;DHT22;2830;50.656;7.568;2022-07-10T01:33:53;12.70;1.00
5617;DHT22;2830;50.656;7.568;2022-07-10T01:36:21;12.60;1.00
5617;DHT22;2830;50.656;7.568;2022-07-10T01:38:51;12.50;1.00
5617;DHT22;2830;50.656;7.568;2022-07-10T01:41:18;12.40;99.90
5617;DHT22;2830;50.656;7.568;2022-07-10T01:43:44;12.20;1.00
5617;DHT22;2830;50.656;7.568;2022-07-10T01:46:12;12.20;99.90
5617;DHT22;2830;50.656;7.568;2022-07-10T01:48:39;12.10;92.70
5617;DHT22;2830;50.656;7.568;2022-07-10T01:51:08;12.00;1.00
5617;DHT22;2830;50.656;7.568;2022-07-10T01:53:35;11.90;99.90
5617;DHT22;2830;50.656;7.568;2022-07-10T01:56:05;11.80;99.90
5617;DHT22;2830;50.656;7.568;2022-07-10T01:58:32;11.70;99.90
5617;DHT22;2830;50.656;7.568;2022-07-10T02:00:59;11.60;99.90
5617;DHT22;2830;50.656;7.568;2022-07-10T02:03:26;11.50;1.00
5617;DHT22;2830;50.656;7.568;2022-07-10T02:06:11;11.50;1.00
5617;DHT22;2830;50.656;7.568;2022-07-10T02:08:38;11.40;25.30
5617;DHT22;2830;50.656;7.568;2022-07-10T02:11:05;11.30;10.90
5617;DHT22;2830;50.656;7.568;2022-07-10T02:13:32;11.30;99.90
5617;DHT22;2830;50.656;7.568;2022-07-10T02:15:59;11.20;99.90
5617;DHT22;2830;50.656;7.568;2022-07-10T02:18:26;11.20;99.90
5617;DHT22;2830;50.656;7.568;2022-07-10T02:20:53;11.10;99.90
5617;DHT22;2830;50.656;7.568;2022-07-10T02:23:19;11.10;99.90
5617;DHT22;2830;50.656;7.568;2022-07-10T02:25:46;11.10;99.90
5617;DHT22;2830;50.656;7.568;2022-07-10T02:28:13;11.00;99.90
5617;DHT22;2830;50.656;7.568;2022-07-10T02:30:39;11.00;99.90
5617;DHT22;2830;50.656;7.568;2022-07-10T02:33:06;10.90;99.90
5617;DHT22;2830;50.656;7.568;2022-07-10T02:35:33;10.80;99.90
5617;DHT22;2830;50.656;7.568;2022-07-10T02:37:59;10.80;1.00
5617;DHT22;2830;50.656;7.568;2022-07-10T02:40:26;10.80;1.00
5617;DHT22;2830;50.656;7.568;2022-07-10T02:42:53;10.80;1.00
5617;DHT22;2830;50.656;7.568;2022-07-10T02:45:20;10.80;1.00
5617;DHT22;2830;50.656;7.568;2022-07-10T02:47:46;10.70;1.00
5617;DHT22;2830;50.656;7.568;2022-07-10T02:50:13;10.70;1.00
5617;DHT22;2830;50.656;7.568;2022-07-10T02:52:40;10.60;1.00
5617;DHT22;2830;50.656;7.568;2022-07-10T02:55:07;10.70;1.00
5617;DHT22;2830;50.656;7.568;2022-07-10T02:57:34;10.70;1.00
5617;DHT22;2830;50.656;7.568;2022-07-10T03:00:01;10.70;27.50
5617;DHT22;2830;50.656;7.568;2022-07-10T03:02:27;10.70;39.40
5617;DHT22;2830;50.656;7.568;2022-07-10T03:04:54;10.70;1.00
5617;DHT22;2830;50.656;7.568;2022-07-10T03:07:21;10.70;10.30
5617;DHT22;2830;50.656;7.568;2022-07-10T03:09:47;10.60;3.80
5617;DHT22;2830;50.656;7.568;2022-07-10T03:12:14;10.60;49.40
5617;DHT22;2830;50.656;7.568;2022-07-10T03:14:41;10.60;43.60
5617;DHT22;2830;50.656;7.568;2022-07-10T03:17:07;10.50;11.20
5617;DHT22;2830;50.656;7.568;2022-07-10T03:19:34;10.50;53.10
5617;DHT22;2830;50.656;7.568;2022-07-10T03:22:01;10.60;99.90
5617;DHT22;2830;50.656;7.568;2022-07-10T03:24:27;10.70;99.90
5617;DHT22;2830;50.656;7.568;2022-07-10T03:26:54;10.70;99.90
5617;DHT22;2830;50.656;7.568;2022-07-10T03:29:21;11.00;99.90
5617;DHT22;2830;50.656;7.568;2022-07-10T03:31:48;11.00;99.90
5617;DHT22;2830;50.656;7.568;2022-07-10T03:34:15;11.10;99.90
5617;DHT22;2830;50.656;7.568;2022-07-10T03:36:42;11.20;99.90
5617;DHT22;2830;50.656;7.568;2022-07-10T03:39:08;11.30;99.90
5617;DHT22;2830;50.656;7.568;2022-07-10T03:41:36;11.20;90.80
5617;DHT22;2830;50.656;7.568;2022-07-10T03:44:03;11.40;99.90
5617;DHT22;2830;50.656;7.568;2022-07-10T03:46:30;11.50;99.90
5617;DHT22;2830;50.656;7.568;2022-07-10T03:48:56;11.70;99.90
5617;DHT22;2830;50.656;7.568;2022-07-10T03:51:23;11.70;99.90
5617;DHT22;2830;50.656;7.568;2022-07-10T03:53:50;11.80;1.00
5617;DHT22;2830;50.656;7.568;2022-07-10T03:56:17;11.80;1.00
5617;DHT22;2830;50.656;7.568;2022-07-10T03:59:02;11.80;1.00
5617;DHT22;2830;50.656;7.568;2022-07-10T04:01:28;11.90;1.00
5617;DHT22;2830;50.656;7.568;2022-07-10T04:03:55;11.90;1.00
5617;DHT22;2830;50.656;7.568;2022-07-10T04:06:22;11.90;1.00
5617;DHT22;2830;50.656;7.568;2022-07-10T04:08:49;12.00;1.00
5617;DHT22;2830;50.656;7.568;2022-07-10T04:11:15;12.00;1.00
5617;DHT22;2830;50.656;7.568;2022-07-10T04:13:42;12.00;1.00
5617;DHT22;2830;50.656;7.568;2022-07-10T04:16:09;12.00;1.00
5617;DHT22;2830;50.656;7.568;2022-07-10T04:18:39;12.20;1.00
5617;DHT22;2830;50.656;7.568;2022-07-10T04:21:07;12.20;1.00
5617;DHT22;2830;50.656;7.568;2022-07-10T04:23:34;12.30;1.00
5617;DHT22;2830;50.656;7.568;2022-07-10T04:26:01;12.30;99.90
5617;DHT22;2830;50.656;7.568;2022-07-10T04:28:28;12.40;99.90
5617;DHT22;2830;50.656;7.568;2022-07-10T04:30:55;12.50;50.30
5617;DHT22;2830;50.656;7.568;2022-07-10T04:33:21;12.50;1.00
5617;DHT22;2830;50.656;7.568;2022-07-10T04:35:48;12.70;99.90
5617;DHT22;2830;50.656;7.568;2022-07-10T04:38:15;12.80;1.00
5617;DHT22;2830;50.656;7.568;2022-07-10T04:40:41;13.00;99.90
5617;DHT22;2830;50.656;7.568;2022-07-10T04:43:08;13.00;99.90
5617;DHT22;2830;50.656;7.568;2022-07-10T04:45:36;13.20;99.90
5617;DHT22;2830;50.656;7.568;2022-07-10T04:48:06;13.20;99.90
5617;DHT22;2830;50.656;7.568;2022-07-10T04:50:33;13.20;99.90
5617;DHT22;2830;50.656;7.568;2022-07-10T04:53:00;13.20;99.90
5617;DHT22;2830;50.656;7.568;2022-07-10T04:55:27;13.20;1.00
5617;DHT22;2830;50.656;7.568;2022-07-10T04:57:53;13.20;99.90
5617;DHT22;2830;50.656;7.568;2022-07-10T05:00:20;13.20;1.00
5617;DHT22;2830;50.656;7.568;2022-07-10T05:02:47;13.20;1.00
5617;DHT22;2830;50.656;7.568;2022-07-10T05:05:14;13.20;99.90
5617;DHT22;2830;50.656;7.568;2022-07-10T05:07:40;13.10;1.00
5617;DHT22;2830;50.656;7.568;2022-07-10T05:10:07;13.10;38.20
5617;DHT22;2830;50.656;7.568;2022-07-10T05:12:34;13.40;99.90
5617;DHT22;2830;50.656;7.568;2022-07-10T05:15:01;13.60;99.90
5617;DHT22;2830;50.656;7.568;2022-07-10T05:17:28;13.70;1.00
5617;DHT22;2830;50.656;7.568;2022-07-10T05:19:55;13.70;99.90
5617;DHT22;2830;50.656;7.568;2022-07-10T05:22:25;13.90;1.00
5617;DHT22;2830;50.656;7.568;2022-07-10T05:24:52;13.90;99.90
5617;DHT22;2830;50.656;7.568;2022-07-10T05:27:18;14.00;93.40
5617;DHT22;2830;50.656;7.568;2022-07-10T05:29:46;14.30;1.00
5617;DHT22;2830;50.656;7.568;2022-07-10T05:32:13;14.50;99.90
5617;DHT22;2830;50.656;7.568;2022-07-10T05:34:40;14.60;1.00
5617;DHT22;2830;50.656;7.568;2022-07-10T05:37:07;14.60;1.00
5617;DHT22;2830;50.656;7.568;2022-07-10T05:39:34;14.70;1.00
5617;DHT22;2830;50.656;7.568;2022-07-10T05:42:01;14.70;1.00
5617;DHT22;2830;50.656;7.568;2022-07-10T05:44:28;14.80;99.90
5617;DHT22;2830;50.656;7.568;2022-07-10T05:46:55;14.80;1.30
5617;DHT22;2830;50.656;7.568;2022-07-10T05:49:22;14.80;1.00
5617;DHT22;2830;50.656;7.568;2022-07-10T05:51:48;15.00;19.10
5617;DHT22;2830;50.656;7.568;2022-07-10T05:54:16;15.10;99.90
5617;DHT22;2830;50.656;7.568;2022-07-10T05:56:43;15.00;1.00
5617;DHT22;2830;50.656;7.568;2022-07-10T05:59:11;14.90;1.00
5617;DHT22;2830;50.656;7.568;2022-07-10T06:01:38;15.10;1.00
5617;DHT22;2830;50.656;7.568;2022-07-10T06:04:04;15.30;99.90
5617;DHT22;2830;50.656;7.568;2022-07-10T06:06:31;15.40;99.90
5617;DHT22;2830;50.656;7.568;2022-07-10T06:08:58;15.30;19.40
5617;DHT22;2830;50.656;7.568;2022-07-10T06:11:25;15.20;99.90
5617;DHT22;2830;50.656;7.568;2022-07-10T06:13:52;15.20;1.00
5617;DHT22;2830;50.656;7.568;2022-07-10T06:16:19;15.30;99.90
5617;DHT22;2830;50.656;7.568;2022-07-10T06:18:45;15.70;1.00
5617;DHT22;2830;50.656;7.568;2022-07-10T06:21:12;16.00;99.90
5617;DHT22;2830;50.656;7.568;2022-07-10T06:23:39;16.10;1.00
5617;DHT22;2830;50.656;7.568;2022-07-10T06:26:06;16.60;99.90
5617;DHT22;2830;50.656;7.568;2022-07-10T06:28:34;16.70;1.00
5617;DHT22;2830;50.656;7.568;2022-07-10T06:31:02;16.90;1.00
5617;DHT22;2830;50.656;7.568;2022-07-10T06:33:28;17.20;1.00
5617;DHT22;2830;50.656;7.568;2022-07-10T06:35:55;17.10;1.00
5617;DHT22;2830;50.656;7.568;2022-07-10T06:38:22;16.90;1.00
5617;DHT22;2830;50.656;7.568;2022-07-10T06:40:50;16.50;1.00
5617;DHT22;2830;50.656;7.568;2022-07-10T06:43:17;16.40;1.00
5617;DHT22;2830;50.656;7.568;2022-07-10T06:45:44;16.20;1.00
5617;DHT22;2830;50.656;7.568;2022-07-10T06:48:12;16.30;1.00
5617;DHT22;2830;50.656;7.568;2022-07-10T06:50:39;17.00;1.00
5617;DHT22;2830;50.656;7.568;2022-07-10T06:53:05;17.20;99.90
5617;DHT22;2830;50.656;7.568;2022-07-10T06:55:32;17.20;99.90
5617;DHT22;2830;50.656;7.568;2022-07-10T06:58:00;17.00;99.90
5617;DHT22;2830;50.656;7.568;2022-07-10T07:00:27;17.00;99.90
5617;DHT22;2830;50.656;7.568;2022-07-10T07:02:54;17.20;99.90
5617;DHT22;2830;50.656;7.568;2022-07-10T07:05:21;17.30;99.90
5617;DHT22;2830;50.656;7.568;2022-07-10T07:07:48;17.60;99.90
5617;DHT22;2830;50.656;7.568;2022-07-10T07:10:15;18.40;99.90
5617;DHT22;2830;50.656;7.568;2022-07-10T07:12:41;18.50;99.90
5617;DHT22;2830;50.656;7.568;2022-07-10T07:15:08;18.20;99.90
5617;DHT22;2830;50.656;7.568;2022-07-10T07:17:42;17.90;99.90
5617;DHT22;2830;50.656;7.568;2022-07-10T07:20:35;17.50;99.90
5617;DHT22;2830;50.656;7.568;2022-07-10T07:23:23;17.30;99.90
5617;DHT22;2830;50.656;7.568;2022-07-10T07:25:50;17.30;99.90
5617;DHT22;2830;50.656;7.568;2022-07-10T07:28:18;18.20;99.90
5617;DHT22;2830;50.656;7.568;2022-07-10T07:30:47;18.80;99.90
5617;DHT22;2830;50.656;7.568;2022-07-10T07:33:14;19.10;99.90
5617;DHT22;2830;50.656;7.568;2022-07-10T07:35:41;18.50;99.90
5617;DHT22;2830;50.656;7.568;2022-07-10T07:38:08;18.30;99.90
5617;DHT22;2830;50.656;7.568;2022-07-10T07:40:34;18.20;99.90
5617;DHT22;2830;50.656;7.568;2022-07-10T07:43:04;18.70;99.90
5617;DHT22;2830;50.656;7.568;2022-07-10T07:45:31;18.40;99.90
5617;DHT22;2830;50.656;7.568;2022-07-10T07:47:59;18.00;99.90
5617;DHT22;2830;50.656;7.568;2022-07-10T07:50:31;17.90;99.90
5617;DHT22;2830;50.656;7.568;2022-07-10T07:53:03;17.70;99.90
5617;DHT22;2830;50.656;7.568;2022-07-10T07:55:31;17.70;99.90
5617;DHT22;2830;50.656;7.568;2022-07-10T07:57:57;17.80;99.90
5617;DHT22;2830;50.656;7.568;2022-07-10T08:00:26;18.00;99.90
5617;DHT22;2830;50.656;7.568;2022-07-10T08:02:54;18.10;99.90
5617;DHT22;2830;50.656;7.568;2022-07-10T08:05:21;18.00;99.90
5617;DHT22;2830;50.656;7.568;2022-07-10T08:07:55;18.30;99.90
5617;DHT22;2830;50.656;7.568;2022-07-10T08:10:24;19.00;99.90
5617;DHT22;2830;50.656;7.568;2022-07-10T08:12:53;19.50;99.90
5617;DHT22;2830;50.656;7.568;2022-07-10T08:15:21;18.90;99.90
5617;DHT22;2830;50.656;7.568;2022-07-10T08:17:55;18.90;99.90
5617;DHT22;2830;50.656;7.568;2022-07-10T08:20:24;18.70;99.90
5617;DHT22;2830;50.656;7.568;2022-07-10T08:22:51;18.10;99.90
5617;DHT22;2830;50.656;7.568;2022-07-10T08:25:27;17.60;99.90
5617;DHT22;2830;50.656;7.568;2022-07-10T08:27:54;17.70;99.90
5617;DHT22;2830;50.656;7.568;2022-07-10T08:30:21;18.00;99.90
5617;DHT22;2830;50.656;7.568;2022-07-10T08:32:47;18.80;99.90
5617;DHT22;2830;50.656;7.568;2022-07-10T08:35:15;20.10;99.90
5617;DHT22;2830;50.656;7.568;2022-07-10T08:37:43;21.10;87.00
5617;DHT22;2830;50.656;7.568;2022-07-10T08:40:13;22.10;64.30
5617;DHT22;2830;50.656;7.568;2022-07-10T08:42:41;22.80;48.80
5617;DHT22;2830;50.656;7.568;2022-07-10T08:45:08;23.70;42.90
5617;DHT22;2830;50.656;7.568;2022-07-10T08:47:36;23.70;41.70
5617;DHT22;2830;50.656;7.568;2022-07-10T08:50:32;25.00;46.00
5617;DHT22;2830;50.656;7.568;2022-07-10T08:53:24;25.60;38.50
5617;DHT22;2830;50.656;7.568;2022-07-10T08:55:55;24.30;27.60
5617;DHT22;2830;50.656;7.568;2022-07-10T08:58:23;22.60;21.50
5617;DHT22;2830;50.656;7.568;2022-07-10T09:00:50;21.80;22.20
5617;DHT22;2830;50.656;7.568;2022-07-10T09:03:17;20.70;22.20
5617;DHT22;2830;50.656;7.568;2022-07-10T09:05:44;20.40;27.60
5617;DHT22;2830;50.656;7.568;2022-07-10T09:08:29;20.20;27.40
5617;DHT22;2830;50.656;7.568;2022-07-10T09:11:26;20.30;27.00
5617;DHT22;2830;50.656;7.568;2022-07-10T09:14:00;19.80;28.80
5617;DHT22;2830;50.656;7.568;2022-07-10T09:16:31;19.40;25.80
5617;DHT22;2830;50.656;7.568;2022-07-10T09:19:26;19.30;33.30
5617;DHT22;2830;50.656;7.568;2022-07-10T09:21:59;19.00;33.50
5617;DHT22;2830;50.656;7.568;2022-07-10T09:27:08;18.80;39.80
5617;DHT22;2830;50.656;7.568;2022-07-10T09:29:49;18.50;42.10
5617;DHT22;2830;50.656;7.568;2022-07-10T09:32:21;18.30;45.50
5617;DHT22;2830;50.656;7.568;2022-07-10T09:34:51;18.30;61.80
5617;DHT22;2830;50.656;7.568;2022-07-10T09:37:41;18.50;52.30
5617;DHT22;2830;50.656;7.568;2022-07-10T09:40:08;18.60;54.10
5617;DHT22;2830;50.656;7.568;2022-07-10T09:42:37;18.20;54.30
5617;DHT22;2830;50.656;7.568;2022-07-10T09:47:59;18.20;64.20
5617;DHT22;2830;50.656;7.568;2022-07-10T09:50:34;18.10;81.60
5617;DHT22;2830;50.656;7.568;2022-07-10T09:53:06;18.10;74.50
5617;DHT22;2830;50.656;7.568;2022-07-10T09:55:37;18.30;71.80
5617;DHT22;2830;50.656;7.568;2022-07-10T09:58:08;18.40;72.00
5617;DHT22;2830;50.656;7.568;2022-07-10T10:00:40;18.20;69.70
5617;DHT22;2830;50.656;7.568;2022-07-10T10:03:09;18.20;91.00
5617;DHT22;2830;50.656;7.568;2022-07-10T10:05:53;18.20;89.40
5617;DHT22;2830;50.656;7.568;2022-07-10T10:08:31;18.30;97.80
5617;DHT22;2830;50.656;7.568;2022-07-10T10:10:59;18.30;91.90
5617;DHT22;2830;50.656;7.568;2022-07-10T10:13:27;18.50;95.00
5617;DHT22;2830;50.656;7.568;2022-07-10T10:15:55;18.60;91.20
5617;DHT22;2830;50.656;7.568;2022-07-10T10:18:26;18.60;94.20
5617;DHT22;2830;50.656;7.568;2022-07-10T10:20:54;18.50;98.00
5617;DHT22;2830;50.656;7.568;2022-07-10T10:23:23;18.80;94.80
5617;DHT22;2830;50.656;7.568;2022-07-10T10:25:56;18.90;92.60
5617;DHT22;2830;50.656;7.568;2022-07-10T10:28:24;19.10;97.70
5617;DHT22;2830;50.656;7.568;2022-07-10T10:31:01;19.30;85.00
5617;DHT22;2830;50.656;7.568;2022-07-10T10:36:02;19.40;79.00
5617;DHT22;2830;50.656;7.568;2022-07-10T10:41:37;19.30;87.40
5617;DHT22;2830;50.656;7.568;2022-07-10T10:46:52;19.10;81.40
5617;DHT22;2830;50.656;7.568;2022-07-10T10:49:53;18.80;88.30
5617;DHT22;2830;50.656;7.568;2022-07-10T10:52:20;18.90;97.30
5617;DHT22;2830;50.656;7.568;2022-07-10T10:55:08;18.50;92.80
5617;DHT22;2830;50.656;7.568;2022-07-10T10:57:38;18.50;98.40
5617;DHT22;2830;50.656;7.568;2022-07-10T11:00:29;18.50;99.90
5617;DHT22;2830;50.656;7.568;2022-07-10T11:03:15;18.80;99.90
5617;DHT22;2830;50.656;7.568;2022-07-10T11:05:43;19.10;99.90
5617;DHT22;2830;50.656;7.568;2022-07-10T11:08:12;19.10;99.20
5617;DHT22;2830;50.656;7.568;2022-07-10T11:10:43;19.00;96.00
5617;DHT22;2830;50.656;7.568;2022-07-10T11:13:16;19.20;99.90
5617;DHT22;2830;50.656;7.568;2022-07-10T11:15:48;19.00;99.30
5617;DHT22;2830;50.656;7.568;2022-07-10T11:18:17;19.10;92.90
5617;DHT22;2830;50.656;7.568;2022-07-10T11:20:47;18.90;95.60
5617;DHT22;2830;50.656;7.568;2022-07-10T11:26:07;18.40;99.90
5617;DHT22;2830;50.656;7.568;2022-07-10T11:28:55;18.20;99.90
5617;DHT22;2830;50.656;7.568;2022-07-10T11:31:23;18.20;99.90
5617;DHT22;2830;50.656;7.568;2022-07-10T11:33:55;18.30;99.90
5617;DHT22;2830;50.656;7.568;2022-07-10T11:36:24;18.30;99.90
5617;DHT22;2830;50.656;7.568;2022-07-10T11:39:06;18.30;99.90
5617;DHT22;2830;50.656;7.568;2022-07-10T11:41:33;17.90;99.90
5617;DHT22;2830;50.656;7.568;2022-07-10T11:44:02;17.70;99.90
5617;DHT22;2830;50.656;7.568;2022-07-10T11:46:31;17.80;99.90
5617;DHT22;2830;50.656;7.568;2022-07-10T11:48:59;17.70;99.90
5617;DHT22;2830;50.656;7.568;2022-07-10T11:54:02;17.80;99.90
5617;DHT22;2830;50.656;7.568;2022-07-10T11:56:32;17.90;99.90
5617;DHT22;2830;50.656;7.568;2022-07-10T12:04:30;17.70;99.90
5617;DHT22;2830;50.656;7.568;2022-07-10T12:06:58;17.70;99.90
5617;DHT22;2830;50.656;7.568;2022-07-10T12:09:25;17.70;99.90
5617;DHT22;2830;50.656;7.568;2022-07-10T12:12:03;17.90;99.90
5617;DHT22;2830;50.656;7.568;2022-07-10T12:14:31;17.90;99.90
5617;DHT22;2830;50.656;7.568;2022-07-10T12:16:59;18.00;99.90
5617;DHT22;2830;50.656;7.568;2022-07-10T12:19:31;18.00;99.90
5617;DHT22;2830;50.656;7.568;2022-07-10T12:22:04;18.10;99.90
5617;DHT22;2830;50.656;7.568;2022-07-10T12:24:32;17.90;1.00
5617;DHT22;2830;50.656;7.568;2022-07-10T12:27:00;18.00;1.00
5617;DHT22;2830;50.656;7.568;2022-07-10T12:29:28;18.10;99.90
5617;DHT22;2830;50.656;7.568;2022-07-10T12:31:59;17.90;99.90
5617;DHT22;2830;50.656;7.568;2022-07-10T12:37:13;18.00;1.00
5617;DHT22;2830;50.656;7.568;2022-07-10T12:39:48;18.10;99.90
5617;DHT22;2830;50.656;7.568;2022-07-10T12:42:26;18.30;99.90
5617;DHT22;2830;50.656;7.568;2022-07-10T12:44:53;18.40;99.90
5617;DHT22;2830;50.656;7.568;2022-07-10T12:47:21;18.50;1.00
5617;DHT22;2830;50.656;7.568;2022-07-10T12:52:24;18.90;99.90
5617;DHT22;2830;50.656;7.568;2022-07-10T12:55:16;18.90;99.90
5617;DHT22;2830;50.656;7.568;2022-07-10T12:57:53;18.80;99.90
5617;DHT22;2830;50.656;7.568;2022-07-10T13:00:33;19.00;99.90
5617;DHT22;2830;50.656;7.568;2022-07-10T13:03:09;18.90;99.90
5617;DHT22;2830;50.656;7.568;2022-07-10T13:05:42;18.90;99.90
5617;DHT22;2830;50.656;7.568;2022-07-10T13:08:16;18.90;99.90
5617;DHT22;2830;50.656;7.568;2022-07-10T13:10:48;19.00;99.90
5617;DHT22;2830;50.656;7.568;2022-07-10T13:13:15;19.00;99.90
5617;DHT22;2830;50.656;7.568;2022-07-10T13:15:43;18.80;99.90
5617;DHT22;2830;50.656;7.568;2022-07-10T13:18:20;18.70;99.90
5617;DHT22;2830;50.656;7.568;2022-07-10T13:20:49;18.60;1.00
5617;DHT22;2830;50.656;7.568;2022-07-10T13:23:20;18.50;99.90
5617;DHT22;2830;50.656;7.568;2022-07-10T13:25:54;18.60;1.00
5617;DHT22;2830;50.656;7.568;2022-07-10T13:28:21;18.50;1.00
5617;DHT22;2830;50.656;7.568;2022-07-10T13:30:48;18.50;1.00
5617;DHT22;2830;50.656;7.568;2022-07-10T13:33:15;18.50;1.00
5617;DHT22;2830;50.656;7.568;2022-07-10T13:35:44;18.50;1.00
5617;DHT22;2830;50.656;7.568;2022-07-10T13:38:10;18.50;1.00
5617;DHT22;2830;50.656;7.568;2022-07-10T13:40:43;18.40;1.00
5617;DHT22;2830;50.656;7.568;2022-07-10T13:43:10;18.10;99.90
5617;DHT22;2830;50.656;7.568;2022-07-10T13:45:39;18.20;99.90
5617;DHT22;2830;50.656;7.568;2022-07-10T13:48:11;18.30;93.90
5617;DHT22;2830;50.656;7.568;2022-07-10T13:50:42;18.20;97.10
5617;DHT22;2830;50.656;7.568;2022-07-10T13:53:09;18.00;99.90
5617;DHT22;2830;50.656;7.568;2022-07-10T13:55:37;17.60;1.00
5617;DHT22;2830;50.656;7.568;2022-07-10T13:58:04;17.30;1.00
5617;DHT22;2830;50.656;7.568;2022-07-10T14:00:31;17.20;99.90
5617;DHT22;2830;50.656;7.568;2022-07-10T14:02:57;17.00;1.00
5617;DHT22;2830;50.656;7.568;2022-07-10T14:05:27;17.00;91.30
5617;DHT22;2830;50.656;7.568;2022-07-10T14:07:53;16.90;99.90
5617;DHT22;2830;50.656;7.568;2022-07-10T14:10:21;16.90;99.90
5617;DHT22;2830;50.656;7.568;2022-07-10T14:12:48;17.10;1.00
5617;DHT22;2830;50.656;7.568;2022-07-10T14:15:14;17.00;99.90
5617;DHT22;2830;50.656;7.568;2022-07-10T14:17:42;17.00;1.00
5617;DHT22;2830;50.656;7.568;2022-07-10T14:20:10;17.10;97.40
5617;DHT22;2830;50.656;7.568;2022-07-10T14:22:37;17.30;1.00
5617;DHT22;2830;50.656;7.568;2022-07-10T14:25:05;17.40;99.90
5617;DHT22;2830;50.656;7.568;2022-07-10T14:27:32;17.40;1.00
5617;DHT22;2830;50.656;7.568;2022-07-10T14:29:59;17.40;99.90
5617;DHT22;2830;50.656;7.568;2022-07-10T14:32:26;17.50;99.90
5617;DHT22;2830;50.656;7.568;2022-07-10T14:34:53;17.20;99.90
5617;DHT22;2830;50.656;7.568;2022-07-10T14:37:19;17.20;1.00
5617;DHT22;2830;50.656;7.568;2022-07-10T14:39:48;17.20;1.00
5617;DHT22;2830;50.656;7.568;2022-07-10T14:42:15;17.10;99.90
5617;DHT22;2830;50.656;7.568;2022-07-10T14:44:43;16.90;99.90
5617;DHT22;2830;50.656;7.568;2022-07-10T14:47:10;16.80;1.00
5617;DHT22;2830;50.656;7.568;2022-07-10T14:49:36;16.70;1.00
5617;DHT22;2830;50.656;7.568;2022-07-10T14:52:03;16.70;31.30
5617;DHT22;2830;50.656;7.568;2022-07-10T14:54:31;16.80;17.40
5617;DHT22;2830;50.656;7.568;2022-07-10T14:56:57;17.00;99.90
5617;DHT22;2830;50.656;7.568;2022-07-10T14:59:29;16.90;99.90
5617;DHT22;2830;50.656;7.568;2022-07-10T15:01:56;17.00;1.00
5617;DHT22;2830;50.656;7.568;2022-07-10T15:04:23;17.00;1.00
5617;DHT22;2830;50.656;7.568;2022-07-10T15:06:50;16.90;32.70
5617;DHT22;2830;50.656;7.568;2022-07-10T15:09:17;16.90;1.00
5617;DHT22;2830;50.656;7.568;2022-07-10T15:11:50;16.80;1.00
5617;DHT22;2830;50.656;7.568;2022-07-10T15:14:18;16.70;31.00
5617;DHT22;2830;50.656;7.568;2022-07-10T15:16:52;16.70;14.70
5617;DHT22;2830;50.656;7.568;2022-07-10T15:19:18;16.70;99.90
5617;DHT22;2830;50.656;7.568;2022-07-10T15:21:45;16.70;99.90
5617;DHT22;2830;50.656;7.568;2022-07-10T15:24:12;16.60;67.90
5617;DHT22;2830;50.656;7.568;2022-07-10T15:26:38;16.80;64.90
5617;DHT22;2830;50.656;7.568;2022-07-10T15:29:05;17.10;99.90
5617;DHT22;2830;50.656;7.568;2022-07-10T15:31:32;17.50;12.30
5617;DHT22;2830;50.656;7.568;2022-07-10T15:34:01;17.90;99.90
5617;DHT22;2830;50.656;7.568;2022-07-10T15:36:32;18.30;99.90
5617;DHT22;2830;50.656;7.568;2022-07-10T15:38:59;18.40;99.90
5617;DHT22;2830;50.656;7.568;2022-07-10T15:41:25;18.40;99.90
5617;DHT22;2830;50.656;7.568;2022-07-10T15:43:57;18.20;1.00
5617;DHT22;2830;50.656;7.568;2022-07-10T15:46:23;18.20;18.80
5617;DHT22;2830;50.656;7.568;2022-07-10T15:48:50;18.00;1.00
5617;DHT22;2830;50.656;7.568;2022-07-10T15:51:18;17.90;1.00
5617;DHT22;2830;50.656;7.568;2022-07-10T15:53:47;17.70;99.90
5617;DHT22;2830;50.656;7.568;2022-07-10T15:56:13;17.70;1.00
5617;DHT22;2830;50.656;7.568;2022-07-10T15:58:40;17.60;1.00
5617;DHT22;2830;50.656;7.568;2022-07-10T16:01:09;17.60;99.90
5617;DHT22;2830;50.656;7.568;2022-07-10T16:03:36;17.60;99.90
5617;DHT22;2830;50.656;7.568;2022-07-10T16:06:05;17.50;99.90
5617;DHT22;2830;50.656;7.568;2022-07-10T16:08:32;17.50;99.90
5617;DHT22;2830;50.656;7.568;2022-07-10T16:10:59;17.50;1.00
5617;DHT22;2830;50.656;7.568;2022-07-10T16:13:26;17.70;99.90
5617;DHT22;2830;50.656;7.568;2022-07-10T16:15:53;17.90;59.50
5617;DHT22;2830;50.656;7.568;2022-07-10T16:18:20;18.00;99.90
5617;DHT22;2830;50.656;7.568;2022-07-10T16:20:47;18.00;1.00
5617;DHT22;2830;50.656;7.568;2022-07-10T16:23:14;18.00;1.00
5617;DHT22;2830;50.656;7.568;2022-07-10T16:25:41;18.00;1.00
5617;DHT22;2830;50.656;7.568;2022-07-10T16:28:24;18.10;99.90
5617;DHT22;2830;50.656;7.568;2022-07-10T16:30:51;18.40;99.90
5617;DHT22;2830;50.656;7.568;2022-07-10T16:33:18;18.30;99.90
5617;DHT22;2830;50.656;7.568;2022-07-10T16:35:45;18.40;99.90
5617;DHT22;2830;50.656;7.568;2022-07-10T16:38:12;18.40;98.20
5617;DHT22;2830;50.656;7.568;2022-07-10T16:40:43;18.50;1.00
5617;DHT22;2830;50.656;7.568;2022-07-10T16:43:10;18.30;1.00
5617;DHT22;2830;50.656;7.568;2022-07-10T16:45:39;18.30;99.90
5617;DHT22;2830;50.656;7.568;2022-07-10T16:48:07;18.40;1.00